sensor_id;sensor_type;location;lat;lon;timestamp;pressure;altitude;pressure_sealevel;temperature;humidity
30110;BME280;14965;50.660;13.226;2023-01-27T00:00:38;95025.50;;;-3.23;98.01
30110;BME280;14965;50.660;13.226;2023-01-27T00:03:07;95027.84;;;-3.22;97.86
30110;BME280;14965;50.660;13.226;2023-01-27T00:05:35;95022.81;;;-3.23;97.60
30110;BME280;14965;50.660;13.226;2023-01-27T00:08:01;95029.06;;;-3.35;96.95
30110;BME280;14965;50.660;13.226;2023-01-27T00:10:27;95029.94;;;-3.31;97.42
30110;BME280;14965;50.660;13.226;2023-01-27T00:12:53;95031.97;;;-3.28;97.60
30110;BME280;14965;50.660;13.226;2023-01-27T00:15:19;95025.31;;;-3.31;97.87
30110;BME280;14965;50.660;13.226;2023-01-27T00:17:44;95027.50;;;-3.36;97.28
30110;BME280;14965;50.660;13.226;2023-01-27T00:20:12;95026.41;;;-3.47;97.48
30110;BME280;14965;50.660;13.226;2023-01-27T00:22:38;95026.41;;;-3.47;98.10
30110;BME280;14965;50.660;13.226;2023-01-27T00:25:04;95027.66;;;-3.45;98.26
30110;BME280;14965;50.660;13.226;2023-01-27T00:27:30;95031.38;;;-3.49;98.13
30110;BME280;14965;50.660;13.226;2023-01-27T00:29:56;95022.41;;;-3.54;98.22
30110;BME280;14965;50.660;13.226;2023-01-27T00:32:22;95019.03;;;-3.51;98.57
30110;BME280;14965;50.660;13.226;2023-01-27T00:34:49;95018.00;;;-3.46;99.01
30110;BME280;14965;50.660;13.226;2023-01-27T00:37:18;95026.97;;;-3.42;99.14
30110;BME280;14965;50.660;13.226;2023-01-27T00:39:44;95026.50;;;-3.44;98.99
30110;BME280;14965;50.660;13.226;2023-01-27T00:42:10;95032.59;;;-3.47;98.80
30110;BME280;14965;50.660;13.226;2023-01-27T00:44:36;95031.53;;;-3.58;98.53
30110;BME280;14965;50.660;13.226;2023-01-27T00:47:01;95032.00;;;-3.68;99.00
30110;BME280;14965;50.660;13.226;2023-01-27T00:49:27;95026.88;;;-3.73;99.41
30110;BME280;14965;50.660;13.226;2023-01-27T00:51:53;95026.97;;;-3.70;99.31
30110;BME280;14965;50.660;13.226;2023-01-27T00:54:20;95026.88;;;-3.73;99.58
30110;BME280;14965;50.660;13.226;2023-01-27T00:56:46;95033.03;;;-3.73;99.86
30110;BME280;14965;50.660;13.226;2023-01-27T00:59:12;95016.97;;;-3.69;100.00
30110;BME280;14965;50.660;13.226;2023-01-27T01:01:38;95020.13;;;-3.67;100.00
30110;BME280;14965;50.660;13.226;2023-01-27T01:04:04;95022.88;;;-3.64;100.00
30110;BME280;14965;50.660;13.226;2023-01-27T01:06:30;95034.34;;;-3.55;100.00
30110;BME280;14965;50.660;13.226;2023-01-27T01:08:56;95038.81;;;-3.46;100.00
30110;BME280;14965;50.660;13.226;2023-01-27T01:11:24;95034.34;;;-3.55;100.00
30110;BME280;14965;50.660;13.226;2023-01-27T01:13:51;95037.81;;;-3.54;99.52
30110;BME280;14965;50.660;13.226;2023-01-27T01:16:19;95038.72;;;-3.50;99.65
30110;BME280;14965;50.660;13.226;2023-01-27T01:18:45;95041.06;;;-3.48;99.55
30110;BME280;14965;50.660;13.226;2023-01-27T01:21:12;95045.88;;;-3.42;99.41
30110;BME280;14965;50.660;13.226;2023-01-27T01:23:39;95049.44;;;-3.38;99.36
30110;BME280;14965;50.660;13.226;2023-01-27T01:26:06;95045.50;;;-3.40;98.96
30110;BME280;14965;50.660;13.226;2023-01-27T01:28:34;95053.63;;;-3.40;98.93
30110;BME280;14965;50.660;13.226;2023-01-27T01:31:04;95046.97;;;-3.43;99.11
30110;BME280;14965;50.660;13.226;2023-01-27T01:33:30;95042.91;;;-3.37;99.12
30110;BME280;14965;50.660;13.226;2023-01-27T01:35:56;95042.56;;;-3.35;98.56
30110;BME280;14965;50.660;13.226;2023-01-27T01:38:21;95045.63;;;-3.37;98.75
30110;BME280;14965;50.660;13.226;2023-01-27T01:40:47;95046.03;;;-3.35;98.81
30110;BME280;14965;50.660;13.226;2023-01-27T01:43:16;95045.63;;;-3.37;98.82
30110;BME280;14965;50.660;13.226;2023-01-27T01:45:47;95048.31;;;-3.37;98.26
30110;BME280;14965;50.660;13.226;2023-01-27T01:48:18;95052.84;;;-3.41;98.10
30110;BME280;14965;50.660;13.226;2023-01-27T01:50:51;95040.91;;;-3.40;98.02
30110;BME280;14965;50.660;13.226;2023-01-27T01:53:22;95038.56;;;-3.41;97.86
30110;BME280;14965;50.660;13.226;2023-01-27T01:55:50;95028.88;;;-3.42;98.15
30110;BME280;14965;50.660;13.226;2023-01-27T01:58:16;95033.16;;;-3.41;97.81
30110;BME280;14965;50.660;13.226;2023-01-27T02:00:42;95039.69;;;-3.42;97.88
30110;BME280;14965;50.660;13.226;2023-01-27T02:03:10;95036.19;;;-3.43;97.29
30110;BME280;14965;50.660;13.226;2023-01-27T02:05:42;95044.28;;;-3.43;97.30
30110;BME280;14965;50.660;13.226;2023-01-27T02:08:15;95046.66;;;-3.41;97.39
30110;BME280;14965;50.660;13.226;2023-01-27T02:10:42;95042.91;;;-3.37;97.27
30110;BME280;14965;50.660;13.226;2023-01-27T02:13:08;95038.19;;;-3.40;97.19
30110;BME280;14965;50.660;13.226;2023-01-27T02:15:34;95047.84;;;-3.39;97.08
30110;BME280;14965;50.660;13.226;2023-01-27T02:18:01;95043.16;;;-3.42;96.95
30110;BME280;14965;50.660;13.226;2023-01-27T02:20:35;95041.69;;;-3.39;96.52
30110;BME280;14965;50.660;13.226;2023-01-27T02:23:12;95042.72;;;-3.44;96.45
30110;BME280;14965;50.660;13.226;2023-01-27T02:25:53;95038.81;;;-3.46;96.70
30110;BME280;14965;50.660;13.226;2023-01-27T02:28:21;95040.38;;;-3.45;96.37
30110;BME280;14965;50.660;13.226;2023-01-27T02:30:47;95040.38;;;-3.45;96.65
30110;BME280;14965;50.660;13.226;2023-01-27T02:33:15;95031.50;;;-3.46;96.61
30110;BME280;14965;50.660;13.226;2023-01-27T02:35:46;95037.00;;;-3.42;96.76
30110;BME280;14965;50.660;13.226;2023-01-27T02:38:16;95032.53;;;-3.35;96.65
30110;BME280;14965;50.660;13.226;2023-01-27T02:40:45;95029.94;;;-3.31;96.98
30110;BME280;14965;50.660;13.226;2023-01-27T02:43:14;95021.06;;;-3.32;96.44
30110;BME280;14965;50.660;13.226;2023-01-27T02:45:40;95019.50;;;-3.33;96.52
30110;BME280;14965;50.660;13.226;2023-01-27T02:48:05;95017.16;;;-3.34;96.57
30110;BME280;14965;50.660;13.226;2023-01-27T02:50:31;95016.78;;;-3.33;96.61
30110;BME280;14965;50.660;13.226;2023-01-27T02:52:57;95021.84;;;-3.31;96.30
30110;BME280;14965;50.660;13.226;2023-01-27T02:55:23;95018.63;;;-3.37;96.15
30110;BME280;14965;50.660;13.226;2023-01-27T02:57:49;95026.63;;;-3.40;96.44
30110;BME280;14965;50.660;13.226;2023-01-27T03:00:17;95030.78;;;-3.43;96.34
30110;BME280;14965;50.660;13.226;2023-01-27T03:02:43;95037.00;;;-3.42;96.33
30110;BME280;14965;50.660;13.226;2023-01-27T03:05:08;95042.63;;;-3.47;96.45
30110;BME280;14965;50.660;13.226;2023-01-27T03:07:34;95042.97;;;-3.49;96.66
30110;BME280;14965;50.660;13.226;2023-01-27T03:10:00;95045.66;;;-3.49;96.79
30110;BME280;14965;50.660;13.226;2023-01-27T03:12:26;95040.63;;;-3.51;96.53
30110;BME280;14965;50.660;13.226;2023-01-27T03:14:52;95045.47;;;-3.56;96.71
30110;BME280;14965;50.660;13.226;2023-01-27T03:17:19;95041.66;;;-3.55;97.24
30110;BME280;14965;50.660;13.226;2023-01-27T03:19:44;95036.34;;;-3.52;97.66
30110;BME280;14965;50.660;13.226;2023-01-27T03:22:10;95035.13;;;-3.54;97.36
30110;BME280;14965;50.660;13.226;2023-01-27T03:24:36;95038.84;;;-3.59;97.40
30110;BME280;14965;50.660;13.226;2023-01-27T03:27:02;95038.53;;;-3.69;97.84
30110;BME280;14965;50.660;13.226;2023-01-27T03:29:28;95041.50;;;-3.74;97.79
30110;BME280;14965;50.660;13.226;2023-01-27T03:31:54;95038.00;;;-3.75;98.34
30110;BME280;14965;50.660;13.226;2023-01-27T03:34:21;95038.34;;;-3.77;98.16
30110;BME280;14965;50.660;13.226;2023-01-27T03:36:47;95032.88;;;-3.80;98.72
30110;BME280;14965;50.660;13.226;2023-01-27T03:39:13;95048.72;;;-3.79;98.56
30110;BME280;14965;50.660;13.226;2023-01-27T03:41:38;95045.16;;;-3.95;99.15
30110;BME280;14965;50.660;13.226;2023-01-27T03:44:04;95045.03;;;-3.98;99.75
30110;BME280;14965;50.660;13.226;2023-01-27T03:46:30;95049.31;;;-3.97;99.98
30110;BME280;14965;50.660;13.226;2023-01-27T03:48:56;95050.53;;;-3.95;100.00
30110;BME280;14965;50.660;13.226;2023-01-27T03:51:25;95057.25;;;-3.89;100.00
30110;BME280;14965;50.660;13.226;2023-01-27T03:53:51;95061.22;;;-3.98;100.00
30110;BME280;14965;50.660;13.226;2023-01-27T03:56:20;95061.22;;;-3.98;100.00
30110;BME280;14965;50.660;13.226;2023-01-27T03:58:48;95057.09;;;-4.08;100.00
30110;BME280;14965;50.660;13.226;2023-01-27T04:01:17;95062.03;;;-4.22;100.00
30110;BME280;14965;50.660;13.226;2023-01-27T04:03:44;95058.91;;;-4.24;100.00
30110;BME280;14965;50.660;13.226;2023-01-27T04:06:12;95061.25;;;-4.23;100.00
30110;BME280;14965;50.660;13.226;2023-01-27T04:08:42;95062.28;;;-4.15;100.00
30110;BME280;14965;50.660;13.226;2023-01-27T04:11:08;95055.53;;;-4.09;100.00
30110;BME280;14965;50.660;13.226;2023-01-27T04:13:34;95053.72;;;-4.05;100.00
30110;BME280;14965;50.660;13.226;2023-01-27T04:16:00;95061.38;;;-4.07;100.00
30110;BME280;14965;50.660;13.226;2023-01-27T04:18:25;95047.19;;;-4.04;100.00
30110;BME280;14965;50.660;13.226;2023-01-27T04:20:51;95054.84;;;-4.06;100.00
30110;BME280;14965;50.660;13.226;2023-01-27T04:23:17;95061.50;;;-4.16;100.00
30110;BME280;14965;50.660;13.226;2023-01-27T04:25:44;95048.81;;;-4.28;100.00
30110;BME280;14965;50.660;13.226;2023-01-27T04:28:10;95051.19;;;-4.38;100.00
30110;BME280;14965;50.660;13.226;2023-01-27T04:30:36;95058.50;;;-4.39;100.00
30110;BME280;14965;50.660;13.226;2023-01-27T04:33:02;95053.06;;;-4.27;100.00
30110;BME280;14965;50.660;13.226;2023-01-27T04:35:28;95050.16;;;-4.21;100.00
30110;BME280;14965;50.660;13.226;2023-01-27T04:37:54;95055.09;;;-4.23;100.00
30110;BME280;14965;50.660;13.226;2023-01-27T04:40:20;95060.59;;;-4.20;100.00
30110;BME280;14965;50.660;13.226;2023-01-27T04:42:47;95068.34;;;-4.18;100.00
30110;BME280;14965;50.660;13.226;2023-01-27T04:45:13;95065.88;;;-4.11;100.00
30110;BME280;14965;50.660;13.226;2023-01-27T04:47:39;95064.06;;;-4.07;100.00
30110;BME280;14965;50.660;13.226;2023-01-27T04:50:05;95071.94;;;-4.14;100.00
30110;BME280;14965;50.660;13.226;2023-01-27T04:52:31;95082.72;;;-4.14;100.00
30110;BME280;14965;50.660;13.226;2023-01-27T04:54:57;95067.44;;;-4.10;100.00
30110;BME280;14965;50.660;13.226;2023-01-27T04:57:23;95071.59;;;-4.13;100.00
30110;BME280;14965;50.660;13.226;2023-01-27T04:59:50;95088.91;;;-4.14;100.00
30110;BME280;14965;50.660;13.226;2023-01-27T05:02:16;95087.00;;;-4.13;100.00
30110;BME280;14965;50.660;13.226;2023-01-27T05:04:42;95081.38;;;-4.20;100.00
30110;BME280;14965;50.660;13.226;2023-01-27T05:07:08;95080.50;;;-4.24;100.00
30110;BME280;14965;50.660;13.226;2023-01-27T05:09:34;95085.22;;;-4.21;100.00
30110;BME280;14965;50.660;13.226;2023-01-27T05:12:00;95080.91;;;-4.10;100.00
30110;BME280;14965;50.660;13.226;2023-01-27T05:14:26;95085.09;;;-4.25;100.00
30110;BME280;14965;50.660;13.226;2023-01-27T05:16:53;95089.84;;;-4.34;100.00
30110;BME280;14965;50.660;13.226;2023-01-27T05:19:19;95088.59;;;-4.37;100.00
30110;BME280;14965;50.660;13.226;2023-01-27T05:21:45;95098.69;;;-4.34;100.00
30110;BME280;14965;50.660;13.226;2023-01-27T05:24:11;95090.38;;;-4.29;100.00
30110;BME280;14965;50.660;13.226;2023-01-27T05:26:37;95089.72;;;-4.26;100.00
30110;BME280;14965;50.660;13.226;2023-01-27T05:29:03;95088.81;;;-4.30;100.00
30110;BME280;14965;50.660;13.226;2023-01-27T05:31:30;95083.84;;;-4.28;100.00
30110;BME280;14965;50.660;13.226;2023-01-27T05:33:59;95086.00;;;-4.21;100.00
30110;BME280;14965;50.660;13.226;2023-01-27T05:36:27;95094.06;;;-4.09;100.00
30110;BME280;14965;50.660;13.226;2023-01-27T05:38:54;95087.53;;;-3.95;100.00
30110;BME280;14965;50.660;13.226;2023-01-27T05:41:20;95103.25;;;-3.85;100.00
30110;BME280;14965;50.660;13.226;2023-01-27T05:43:51;95094.94;;;-3.80;100.00
30110;BME280;14965;50.660;13.226;2023-01-27T05:46:46;95100.50;;;-3.73;100.00
30110;BME280;14965;50.660;13.226;2023-01-27T05:49:13;95102.69;;;-3.79;100.00
30110;BME280;14965;50.660;13.226;2023-01-27T05:51:39;95100.22;;;-3.84;100.00
30110;BME280;14965;50.660;13.226;2023-01-27T05:54:06;95103.81;;;-3.92;100.00
30110;BME280;14965;50.660;13.226;2023-01-27T05:56:32;95099.09;;;-3.95;100.00
30110;BME280;14965;50.660;13.226;2023-01-27T05:58:58;95095.97;;;-3.97;100.00
30110;BME280;14965;50.660;13.226;2023-01-27T06:01:26;95111.94;;;-4.04;100.00
30110;BME280;14965;50.660;13.226;2023-01-27T06:03:53;95116.56;;;-4.05;100.00
30110;BME280;14965;50.660;13.226;2023-01-27T06:06:23;95115.66;;;-4.09;100.00
30110;BME280;14965;50.660;13.226;2023-01-27T06:08:50;95113.50;;;-4.03;100.00
30110;BME280;14965;50.660;13.226;2023-01-27T06:11:18;95117.34;;;-4.04;100.00
30110;BME280;14965;50.660;13.226;2023-01-27T06:13:44;95117.88;;;-3.98;100.00
30110;BME280;14965;50.660;13.226;2023-01-27T06:16:13;95110.13;;;-4.00;100.00
30110;BME280;14965;50.660;13.226;2023-01-27T06:18:40;95125.31;;;-3.95;100.00
30110;BME280;14965;50.660;13.226;2023-01-27T06:21:08;95116.06;;;-3.94;100.00
30110;BME280;14965;50.660;13.226;2023-01-27T06:23:36;95110.13;;;-3.88;100.00
30110;BME280;14965;50.660;13.226;2023-01-27T06:26:06;95120.31;;;-3.81;100.00
30110;BME280;14965;50.660;13.226;2023-01-27T06:28:32;95109.63;;;-3.78;100.00
30110;BME280;14965;50.660;13.226;2023-01-27T06:31:04;95117.41;;;-3.76;100.00
30110;BME280;14965;50.660;13.226;2023-01-27T06:33:30;95116.06;;;-3.82;100.00
30110;BME280;14965;50.660;13.226;2023-01-27T06:36:00;95127.31;;;-3.80;100.00
30110;BME280;14965;50.660;13.226;2023-01-27T06:38:26;95124.50;;;-3.84;100.00
30110;BME280;14965;50.660;13.226;2023-01-27T06:40:53;95122.13;;;-3.85;100.00
30110;BME280;14965;50.660;13.226;2023-01-27T06:43:19;95132.50;;;-3.87;100.00
30110;BME280;14965;50.660;13.226;2023-01-27T06:45:48;95134.06;;;-3.86;100.00
30110;BME280;14965;50.660;13.226;2023-01-27T06:48:14;95133.38;;;-3.83;100.00
30110;BME280;14965;50.660;13.226;2023-01-27T06:50:39;95132.13;;;-3.86;100.00
30110;BME280;14965;50.660;13.226;2023-01-27T06:53:06;95138.00;;;-3.96;100.00
30110;BME280;14965;50.660;13.226;2023-01-27T06:55:36;95141.25;;;-4.15;100.00
30110;BME280;14965;50.660;13.226;2023-01-27T06:58:03;95136.22;;;-4.16;100.00
30110;BME280;14965;50.660;13.226;2023-01-27T07:00:29;95143.41;;;-4.20;100.00
30110;BME280;14965;50.660;13.226;2023-01-27T07:02:56;95141.25;;;-4.27;100.00
30110;BME280;14965;50.660;13.226;2023-01-27T07:05:22;95149.47;;;-4.36;100.00
30110;BME280;14965;50.660;13.226;2023-01-27T07:07:48;95152.94;;;-4.35;100.00
30110;BME280;14965;50.660;13.226;2023-01-27T07:10:14;95161.03;;;-4.35;100.00
30110;BME280;14965;50.660;13.226;2023-01-27T07:12:40;95161.13;;;-4.44;100.00
30110;BME280;14965;50.660;13.226;2023-01-27T07:15:09;95155.63;;;-4.47;100.00
30110;BME280;14965;50.660;13.226;2023-01-27T07:17:36;95157.91;;;-4.37;100.00
30110;BME280;14965;50.660;13.226;2023-01-27T07:20:03;95150.94;;;-4.26;100.00
30110;BME280;14965;50.660;13.226;2023-01-27T07:22:30;95154.75;;;-4.27;100.00
30110;BME280;14965;50.660;13.226;2023-01-27T07:24:55;95146.66;;;-4.27;100.00
30110;BME280;14965;50.660;13.226;2023-01-27T07:27:21;95152.94;;;-4.23;100.00
30110;BME280;14965;50.660;13.226;2023-01-27T07:29:47;95161.03;;;-4.23;100.00
30110;BME280;14965;50.660;13.226;2023-01-27T07:32:15;95162.28;;;-4.20;100.00
30110;BME280;14965;50.660;13.226;2023-01-27T07:34:40;95160.25;;;-4.11;100.00
30110;BME280;14965;50.660;13.226;2023-01-27T07:37:06;95167.22;;;-4.10;100.00
30110;BME280;14965;50.660;13.226;2023-01-27T07:39:32;95170.38;;;-4.08;100.00
30110;BME280;14965;50.660;13.226;2023-01-27T07:41:58;95173.19;;;-4.05;100.00
30110;BME280;14965;50.660;13.226;2023-01-27T07:44:24;95184.09;;;-4.01;100.00
30110;BME280;14965;50.660;13.226;2023-01-27T07:46:50;95181.72;;;-4.03;100.00
30110;BME280;14965;50.660;13.226;2023-01-27T07:49:17;95179.13;;;-3.99;100.00
30110;BME280;14965;50.660;13.226;2023-01-27T07:51:43;95186.78;;;-4.01;100.00
30110;BME280;14965;50.660;13.226;2023-01-27T07:54:08;95189.59;;;-3.97;100.00
30110;BME280;14965;50.660;13.226;2023-01-27T07:56:34;95189.94;;;-4.11;100.00
30110;BME280;14965;50.660;13.226;2023-01-27T07:59:01;95193.28;;;-4.14;100.00
30110;BME280;14965;50.660;13.226;2023-01-27T08:01:27;95193.63;;;-4.16;100.00
30110;BME280;14965;50.660;13.226;2023-01-27T08:03:52;95192.84;;;-4.16;100.00
30110;BME280;14965;50.660;13.226;2023-01-27T08:06:19;95197.47;;;-4.17;100.00
30110;BME280;14965;50.660;13.226;2023-01-27T08:08:48;95207.13;;;-4.16;100.00
30110;BME280;14965;50.660;13.226;2023-01-27T08:11:15;95208.94;;;-4.08;100.00
30110;BME280;14965;50.660;13.226;2023-01-27T08:13:41;95204.09;;;-4.02;100.00
30110;BME280;14965;50.660;13.226;2023-01-27T08:16:12;95191.97;;;-4.08;100.00
30110;BME280;14965;50.660;13.226;2023-01-27T08:18:39;95199.03;;;-4.04;100.00
30110;BME280;14965;50.660;13.226;2023-01-27T08:21:08;95199.38;;;-3.93;100.00
30110;BME280;14965;50.660;13.226;2023-01-27T08:23:36;95204.56;;;-3.88;100.00
30110;BME280;14965;50.660;13.226;2023-01-27T08:26:04;95202.75;;;-3.96;100.00
30110;BME280;14965;50.660;13.226;2023-01-27T08:28:32;95199.69;;;-4.07;100.00
30110;BME280;14965;50.660;13.226;2023-01-27T08:31:03;95210.38;;;-4.10;100.00
30110;BME280;14965;50.660;13.226;2023-01-27T08:33:30;95210.28;;;-4.14;100.00
30110;BME280;14965;50.660;13.226;2023-01-27T08:35:56;95204.66;;;-4.21;100.00
30110;BME280;14965;50.660;13.226;2023-01-27T08:38:22;95206.75;;;-4.27;100.00
30110;BME280;14965;50.660;13.226;2023-01-27T08:40:49;95205.66;;;-4.26;100.00
30110;BME280;14965;50.660;13.226;2023-01-27T08:43:15;95197.78;;;-4.18;100.00
30110;BME280;14965;50.660;13.226;2023-01-27T08:45:41;95205.56;;;-4.17;100.00
30110;BME280;14965;50.660;13.226;2023-01-27T08:48:07;95202.97;;;-4.26;100.00
30110;BME280;14965;50.660;13.226;2023-01-27T08:50:33;95205.19;;;-4.28;100.00
30110;BME280;14965;50.660;13.226;2023-01-27T08:53:57;95208.56;;;-4.31;100.00
30110;BME280;14965;50.660;13.226;2023-01-27T08:56:23;95202.28;;;-4.22;100.00
30110;BME280;14965;50.660;13.226;2023-01-27T09:00:34;95195.31;;;-4.11;100.00
30110;BME280;14965;50.660;13.226;2023-01-27T09:02:59;95209.81;;;-4.04;100.00
30110;BME280;14965;50.660;13.226;2023-01-27T09:05:25;95212.41;;;-3.95;100.00
30110;BME280;14965;50.660;13.226;2023-01-27T09:07:51;95228.59;;;-3.95;100.00
30110;BME280;14965;50.660;13.226;2023-01-27T09:10:17;95218.28;;;-3.93;100.00
30110;BME280;14965;50.660;13.226;2023-01-27T09:12:43;95228.59;;;-3.95;100.00
30110;BME280;14965;50.660;13.226;2023-01-27T09:15:10;95231.75;;;-4.05;100.00
30110;BME280;14965;50.660;13.226;2023-01-27T09:17:38;95241.28;;;-4.08;100.00
30110;BME280;14965;50.660;13.226;2023-01-27T09:20:05;95231.41;;;-4.04;100.00
30110;BME280;14965;50.660;13.226;2023-01-27T09:22:30;95230.41;;;-3.99;100.00
30110;BME280;14965;50.660;13.226;2023-01-27T09:24:56;95235.34;;;-3.89;100.00
30110;BME280;14965;50.660;13.226;2023-01-27T09:27:22;95230.41;;;-3.87;100.00
30110;BME280;14965;50.660;13.226;2023-01-27T09:29:48;95235.34;;;-3.89;100.00
30110;BME280;14965;50.660;13.226;2023-01-27T09:32:14;95244.25;;;-3.88;100.00
30110;BME280;14965;50.660;13.226;2023-01-27T09:34:41;95232.97;;;-3.90;100.00
30110;BME280;14965;50.660;13.226;2023-01-27T09:37:10;95239.50;;;-3.91;100.00
30110;BME280;14965;50.660;13.226;2023-01-27T09:39:41;95235.00;;;-3.87;100.00
30110;BME280;14965;50.660;13.226;2023-01-27T09:42:30;95236.25;;;-3.97;100.00
30110;BME280;14965;50.660;13.226;2023-01-27T09:45:37;95236.69;;;-3.95;100.00
30110;BME280;14965;50.660;13.226;2023-01-27T09:48:37;95239.38;;;-3.95;100.00
30110;BME280;14965;50.660;13.226;2023-01-27T09:51:16;95243.44;;;-3.89;100.00
30110;BME280;14965;50.660;13.226;2023-01-27T09:54:17;95240.19;;;-3.70;100.00
30110;BME280;14965;50.660;13.226;2023-01-27T09:56:55;95230.41;;;-3.74;100.00
30110;BME280;14965;50.660;13.226;2023-01-27T09:59:38;95226.56;;;-3.73;100.00
30110;BME280;14965;50.660;13.226;2023-01-27T10:02:21;95228.38;;;-3.65;100.00
30110;BME280;14965;50.660;13.226;2023-01-27T10:05:13;95238.81;;;-3.64;100.00
30110;BME280;14965;50.660;13.226;2023-01-27T10:08:06;95236.47;;;-3.65;100.00
30110;BME280;14965;50.660;13.226;2023-01-27T10:10:58;95236.47;;;-3.65;100.00
30110;BME280;14965;50.660;13.226;2023-01-27T10:13:34;95237.94;;;-3.80;100.00
30110;BME280;14965;50.660;13.226;2023-01-27T10:16:43;95237.72;;;-3.75;100.00
30110;BME280;14965;50.660;13.226;2023-01-27T10:19:36;95244.13;;;-3.67;100.00
30110;BME280;14965;50.660;13.226;2023-01-27T10:22:15;95230.84;;;-3.60;100.00
30110;BME280;14965;50.660;13.226;2023-01-27T10:25:02;95241.84;;;-3.53;100.00
30110;BME280;14965;50.660;13.226;2023-01-27T10:27:36;95233.19;;;-3.46;100.00
30110;BME280;14965;50.660;13.226;2023-01-27T10:30:10;95247.91;;;-3.44;100.00
30110;BME280;14965;50.660;13.226;2023-01-27T10:32:43;95245.47;;;-3.61;100.00
30110;BME280;14965;50.660;13.226;2023-01-27T10:35:16;95243.31;;;-3.68;100.00
30110;BME280;14965;50.660;13.226;2023-01-27T10:37:59;95243.22;;;-3.59;100.00
30110;BME280;14965;50.660;13.226;2023-01-27T10:40:39;95236.03;;;-3.55;100.00
30110;BME280;14965;50.660;13.226;2023-01-27T10:43:13;95241.31;;;-3.59;100.00
30110;BME280;14965;50.660;13.226;2023-01-27T10:45:51;95238.38;;;-3.54;100.00
30110;BME280;14965;50.660;13.226;2023-01-27T10:48:32;95234.53;;;-3.40;100.00
30110;BME280;14965;50.660;13.226;2023-01-27T10:51:06;95247.47;;;-3.46;100.00
30110;BME280;14965;50.660;13.226;2023-01-27T10:53:44;95251.88;;;-3.54;99.68
30110;BME280;14965;50.660;13.226;2023-01-27T10:56:24;95245.94;;;-3.59;100.00
30110;BME280;14965;50.660;13.226;2023-01-27T10:59:01;95243.31;;;-3.56;100.00
30110;BME280;14965;50.660;13.226;2023-01-27T11:01:34;95242.41;;;-3.47;100.00
30110;BME280;14965;50.660;13.226;2023-01-27T11:04:10;95241.06;;;-3.54;100.00
30110;BME280;14965;50.660;13.226;2023-01-27T11:06:41;95244.78;;;-3.58;100.00
30110;BME280;14965;50.660;13.226;2023-01-27T11:09:23;95235.66;;;-3.41;100.00
30110;BME280;14965;50.660;13.226;2023-01-27T11:11:53;95232.34;;;-3.22;99.40
30110;BME280;14965;50.660;13.226;2023-01-27T11:14:26;95239.56;;;-3.27;98.63
30110;BME280;14965;50.660;13.226;2023-01-27T11:17:02;95237.56;;;-3.30;98.28
30110;BME280;14965;50.660;13.226;2023-01-27T11:19:39;95233.88;;;-3.49;98.65
30110;BME280;14965;50.660;13.226;2023-01-27T11:22:19;95237.72;;;-3.51;99.38
30110;BME280;14965;50.660;13.226;2023-01-27T11:24:51;95247.13;;;-3.44;99.50
30110;BME280;14965;50.660;13.226;2023-01-27T11:27:45;95236.44;;;-3.41;99.03
30110;BME280;14965;50.660;13.226;2023-01-27T11:30:26;95245.19;;;-3.32;99.22
30110;BME280;14965;50.660;13.226;2023-01-27T11:33:02;95244.53;;;-3.29;98.48
30110;BME280;14965;50.660;13.226;2023-01-27T11:35:30;95241.28;;;-3.34;98.27
30110;BME280;14965;50.660;13.226;2023-01-27T11:37:56;95232.38;;;-3.35;98.85
30110;BME280;14965;50.660;13.226;2023-01-27T11:40:29;95237.78;;;-3.35;98.86
30110;BME280;14965;50.660;13.226;2023-01-27T11:42:58;95237.34;;;-3.37;99.06
30110;BME280;14965;50.660;13.226;2023-01-27T11:45:26;95236.31;;;-3.32;98.89
30110;BME280;14965;50.660;13.226;2023-01-27T11:47:58;95242.28;;;-3.39;99.10
30110;BME280;14965;50.660;13.226;2023-01-27T11:50:29;95236.81;;;-3.55;99.57
30110;BME280;14965;50.660;13.226;2023-01-27T11:53:08;95237.13;;;-3.56;99.50
30110;BME280;14965;50.660;13.226;2023-01-27T11:55:40;95227.94;;;-3.55;100.00
30110;BME280;14965;50.660;13.226;2023-01-27T11:58:19;95226.19;;;-3.47;100.00
30110;BME280;14965;50.660;13.226;2023-01-27T12:00:53;95217.31;;;-3.36;100.00
30110;BME280;14965;50.660;13.226;2023-01-27T12:03:27;95229.47;;;-3.42;100.00
30110;BME280;14965;50.660;13.226;2023-01-27T12:06:00;95226.31;;;-3.44;100.00
30110;BME280;14965;50.660;13.226;2023-01-27T12:08:40;95226.66;;;-3.45;100.00
30110;BME280;14965;50.660;13.226;2023-01-27T12:11:22;95224.06;;;-3.42;100.00
30110;BME280;14965;50.660;13.226;2023-01-27T12:13:56;95215.09;;;-3.46;100.00
30110;BME280;14965;50.660;13.226;2023-01-27T12:16:33;95217.44;;;-3.44;100.00
30110;BME280;14965;50.660;13.226;2023-01-27T12:19:21;95212.16;;;-3.41;100.00
30110;BME280;14965;50.660;13.226;2023-01-27T12:21:54;95209.03;;;-3.55;100.00
30110;BME280;14965;50.660;13.226;2023-01-27T12:24:27;95211.25;;;-3.57;100.00
30110;BME280;14965;50.660;13.226;2023-01-27T12:26:56;95207.13;;;-3.55;100.00
30110;BME280;14965;50.660;13.226;2023-01-27T12:29:34;95208.69;;;-3.54;100.00
30110;BME280;14965;50.660;13.226;2023-01-27T12:32:12;95213.53;;;-3.59;100.00
30110;BME280;14965;50.660;13.226;2023-01-27T12:34:43;95210.03;;;-3.60;100.00
30110;BME280;14965;50.660;13.226;2023-01-27T12:37:21;95211.94;;;-3.60;100.00
30110;BME280;14965;50.660;13.226;2023-01-27T12:39:52;95205.09;;;-3.58;100.00
30110;BME280;14965;50.660;13.226;2023-01-27T12:42:40;95203.63;;;-3.55;100.00
30110;BME280;14965;50.660;13.226;2023-01-27T12:45:25;95200.00;;;-3.47;100.00
30110;BME280;14965;50.660;13.226;2023-01-27T12:47:59;95199.22;;;-3.60;100.00
30110;BME280;14965;50.660;13.226;2023-01-27T12:50:28;95199.56;;;-3.61;100.00
30110;BME280;14965;50.660;13.226;2023-01-27T12:53:10;95200.03;;;-3.59;100.00
30110;BME280;14965;50.660;13.226;2023-01-27T12:55:40;95197.78;;;-3.57;100.00
30110;BME280;14965;50.660;13.226;2023-01-27T12:58:33;95195.59;;;-3.52;100.00